Appam, ND

9:47 PM CDT on June 30, 2015 (GMT -0500)
KNDALAMO3 | | Change Station
CLOSE
Current Station
Personal Weather Station
Location: Alamo, ND
Elevation: 2090 ft
Nearby Weather Stations
Active Advisory: Tornado Watch

Elev 2090 ft 48.49 °N, 103.51 °W | Updated 2 minutes ago

Mostly Cloudy
Mostly Cloudy
63.4 °F
Feels Like 63.4 °F
N
4.0
Wind Variable Wind from SE
Gusts 8.0 mph

Today
High -- | Low -- °F
--% Chance of Precip.
Yesterday
High -- | Low -- °F
Precip. -- in
5:54 AM 9:59 PM
Waxing Gibbous, 99% visible
Pressure 29.91 in
Visibility 1.8 miles
Clouds Clear
Dew Point 61 °F
Humidity 91%
Rainfall in
Snow Depth Not available.
UV 0.0 out of 12
Pollen 5.00 out of 12
Air Quality Not available.
Flu Activity Sporadic
METAR KD50 010235Z AUTO 13004KT 1 3/4SM BR CLR 16/16 A2991 RMK AO2

More Conditions Fewer Conditions

Pressure 29.91 in
Visibility 1.8 miles
Clouds Clear
Dew Point 61 °F
Humidity 91%
Rainfall in
Snow Depth Not available.
UV 0.0 out of 12
Pollen 5.00 out of 12
Air Quality Not available.
Flu Activity Sporadic
METAR KD50 010235Z AUTO 13004KT 1 3/4SM BR CLR 16/16 A2991 RMK AO2

More Conditions Fewer Conditions

10-Day Weather Forecast

×

Almanac

Astronomy

Jun. 30, 2015 Rise Set
Actual Time
Civil Twilight
Nautical Twilight
Astronomical Twilight
Moon
Length of Visible Light
Length of Day
Tomorrow will be .
, % of the Moon is Illuminated

Today's Extremes

State Highs State Lows

Community

WunderPhotos

Upload Photos

1,834,111 photos uploaded!

WunderBlogs® & News

Nearby

Air Quality

  Air Quality AQ Index Pollutant
Not available.

Snow Depth

Station Depth Elevation

Earthquake Activity

City Distance Mag. Time & Date
Minimum magnitude displayed is 2.5.

Coastal Water Temperatures

Place Temperature

Stations

Nearby Weather Stations

Station Location Temp. Windchill Dew Point Humidity Wind Precip. Elev Updated Type
                   
Tornado Watch
Statement as of 9:36 PM CDT on June 30, 2015


The National Weather Service has cancelled Tornado Watch 380 for
the following areas

In North Dakota this cancels 3 counties

In northwest North Dakota

Divide McKenzie Williams

This includes the cities of... Crosby...
Watford City and Williston.